sensor_id;sensor_type;location;lat;lon;timestamp;pressure;altitude;pressure_sealevel;temperature;humidity
8627;BME280;4351;51.422;6.794;2023-04-05T00:01:03;102283.78;;;3.28;100.00
8627;BME280;4351;51.422;6.794;2023-04-05T00:03:33;102281.91;;;3.46;100.00
8627;BME280;4351;51.422;6.794;2023-04-05T00:06:01;102279.28;;;3.37;100.00
8627;BME280;4351;51.422;6.794;2023-04-05T00:08:32;102281.06;;;3.36;100.00
8627;BME280;4351;51.422;6.794;2023-04-05T00:11:00;102271.25;;;3.41;100.00
8627;BME280;4351;51.422;6.794;2023-04-05T00:13:27;102278.41;;;3.38;100.00
8627;BME280;4351;51.422;6.794;2023-04-05T00:15:56;102274.00;;;3.30;100.00
8627;BME280;4351;51.422;6.794;2023-04-05T00:18:26;102274.97;;;3.12;100.00
8627;BME280;4351;51.422;6.794;2023-04-05T00:21:00;102274.06;;;3.15;100.00
8627;BME280;4351;51.422;6.794;2023-04-05T00:23:28;102283.81;;;3.19;100.00
8627;BME280;4351;51.422;6.794;2023-04-05T00:26:04;102275.78;;;3.25;100.00
8627;BME280;4351;51.422;6.794;2023-04-05T00:28:33;102282.94;;;3.17;100.00
8627;BME280;4351;51.422;6.794;2023-04-05T00:31:02;102277.59;;;3.17;100.00
8627;BME280;4351;51.422;6.794;2023-04-05T00:33:30;102273.09;;;3.31;100.00
8627;BME280;4351;51.422;6.794;2023-04-05T00:36:07;102272.19;;;3.36;100.00
8627;BME280;4351;51.422;6.794;2023-04-05T00:38:35;102269.50;;;3.34;100.00
8627;BME280;4351;51.422;6.794;2023-04-05T00:41:05;102263.31;;;3.27;100.00
8627;BME280;4351;51.422;6.794;2023-04-05T00:43:33;102259.75;;;3.31;100.00
8627;BME280;4351;51.422;6.794;2023-04-05T00:46:01;102265.94;;;3.40;100.00
8627;BME280;4351;51.422;6.794;2023-04-05T00:48:29;102263.22;;;3.46;100.00
8627;BME280;4351;51.422;6.794;2023-04-05T00:50:57;102257.03;;;3.39;100.00
8627;BME280;4351;51.422;6.794;2023-04-05T00:53:26;102250.78;;;3.40;100.00
8627;BME280;4351;51.422;6.794;2023-04-05T00:55:54;102259.72;;;3.38;100.00
8627;BME280;4351;51.422;6.794;2023-04-05T00:58:24;102265.06;;;3.39;100.00
8627;BME280;4351;51.422;6.794;2023-04-05T01:00:58;102278.41;;;3.36;100.00
8627;BME280;4351;51.422;6.794;2023-04-05T01:03:28;102274.00;;;3.30;100.00
8627;BME280;4351;51.422;6.794;2023-04-05T01:06:07;102268.69;;;3.24;100.00
8627;BME280;4351;51.422;6.794;2023-04-05T01:08:46;102268.72;;;3.19;100.00
8627;BME280;4351;51.422;6.794;2023-04-05T01:11:17;102265.16;;;3.22;100.00
8627;BME280;4351;51.422;6.794;2023-04-05T01:13:47;102257.19;;;3.16;100.00
8627;BME280;4351;51.422;6.794;2023-04-05T01:16:15;102259.84;;;3.16;100.00
8627;BME280;4351;51.422;6.794;2023-04-05T01:18:43;102255.38;;;3.16;100.00
8627;BME280;4351;51.422;6.794;2023-04-05T01:24:52;102246.47;;;3.24;100.00
8627;BME280;4351;51.422;6.794;2023-04-05T01:27:47;102251.91;;;3.02;100.00
8627;BME280;4351;51.422;6.794;2023-04-05T01:30:23;102250.13;;;2.97;100.00
8627;BME280;4351;51.422;6.794;2023-04-05T01:32:59;102251.94;;;2.87;100.00
8627;BME280;4351;51.422;6.794;2023-04-05T01:35:36;102251.06;;;2.89;100.00
8627;BME280;4351;51.422;6.794;2023-04-05T01:38:08;102245.72;;;2.92;100.00
8627;BME280;4351;51.422;6.794;2023-04-05T01:40:39;102250.16;;;2.90;100.00
8627;BME280;4351;51.422;6.794;2023-04-05T01:43:12;102248.41;;;2.89;100.00
8627;BME280;4351;51.422;6.794;2023-04-05T01:45:44;102246.63;;;2.86;100.00
8627;BME280;4351;51.422;6.794;2023-04-05T01:48:13;102234.22;;;2.82;100.00
8627;BME280;4351;51.422;6.794;2023-04-05T01:50:41;102244.91;;;2.72;100.00
8627;BME280;4351;51.422;6.794;2023-04-05T01:53:09;102241.38;;;2.72;100.00
8627;BME280;4351;51.422;6.794;2023-04-05T01:55:37;102238.69;;;2.70;100.00
8627;BME280;4351;51.422;6.794;2023-04-05T01:58:07;102242.25;;;2.61;100.00
8627;BME280;4351;51.422;6.794;2023-04-05T02:00:36;102237.81;;;2.65;100.00
8627;BME280;4351;51.422;6.794;2023-04-05T02:03:05;102233.38;;;2.69;100.00
8627;BME280;4351;51.422;6.794;2023-04-05T02:05:34;102233.38;;;2.62;100.00
8627;BME280;4351;51.422;6.794;2023-04-05T02:08:02;102230.72;;;2.58;100.00
8627;BME280;4351;51.422;6.794;2023-04-05T02:10:30;102233.47;;;2.39;100.00
8627;BME280;4351;51.422;6.794;2023-04-05T02:12:58;102237.00;;;2.46;100.00
8627;BME280;4351;51.422;6.794;2023-04-05T02:15:25;102237.88;;;2.48;100.00
8627;BME280;4351;51.422;6.794;2023-04-05T02:17:53;102245.00;;;2.46;100.00
8627;BME280;4351;51.422;6.794;2023-04-05T02:20:23;102240.53;;;2.45;100.00
8627;BME280;4351;51.422;6.794;2023-04-05T02:22:53;102244.09;;;2.37;100.00
8627;BME280;4351;51.422;6.794;2023-04-05T02:25:21;102240.59;;;2.21;100.00
8627;BME280;4351;51.422;6.794;2023-04-05T02:27:49;102242.34;;;2.27;100.00
8627;BME280;4351;51.422;6.794;2023-04-05T02:30:17;102240.59;;;2.16;100.00
8627;BME280;4351;51.422;6.794;2023-04-05T02:32:44;102229.94;;;2.21;100.00
8627;BME280;4351;51.422;6.794;2023-04-05T02:35:12;102232.59;;;2.23;100.00
8627;BME280;4351;51.422;6.794;2023-04-05T02:37:44;102239.69;;;2.30;100.00
8627;BME280;4351;51.422;6.794;2023-04-05T02:40:13;102242.31;;;2.44;100.00
8627;BME280;4351;51.422;6.794;2023-04-05T02:42:41;102242.34;;;2.33;100.00
8627;BME280;4351;51.422;6.794;2023-04-05T02:45:09;102239.69;;;2.27;100.00
8627;BME280;4351;51.422;6.794;2023-04-05T02:47:38;102235.25;;;2.26;100.00
8627;BME280;4351;51.422;6.794;2023-04-05T02:50:07;102237.91;;;2.23;100.00
8627;BME280;4351;51.422;6.794;2023-04-05T02:52:40;102234.38;;;2.16;100.00
8627;BME280;4351;51.422;6.794;2023-04-05T02:55:10;102233.50;;;2.17;100.00
8627;BME280;4351;51.422;6.794;2023-04-05T02:57:38;102240.59;;;2.26;100.00
8627;BME280;4351;51.422;6.794;2023-04-05T03:00:20;102241.44;;;2.26;100.00
8627;BME280;4351;51.422;6.794;2023-04-05T03:02:48;102241.47;;;2.18;100.00
8627;BME280;4351;51.422;6.794;2023-04-05T03:05:17;102237.91;;;2.18;100.00
8627;BME280;4351;51.422;6.794;2023-04-05T03:07:49;102239.72;;;2.08;100.00
8627;BME280;4351;51.422;6.794;2023-04-05T03:10:23;102238.81;;;2.09;100.00
8627;BME280;4351;51.422;6.794;2023-04-05T03:13:00;102240.63;;;2.04;100.00
8627;BME280;4351;51.422;6.794;2023-04-05T03:15:30;102240.59;;;2.10;100.00
8627;BME280;4351;51.422;6.794;2023-04-05T03:18:05;102235.28;;;2.15;100.00
8627;BME280;4351;51.422;6.794;2023-04-05T03:20:34;102228.19;;;1.92;100.00
8627;BME280;4351;51.422;6.794;2023-04-05T03:23:09;102231.72;;;2.11;100.00
8627;BME280;4351;51.422;6.794;2023-04-05T03:25:39;102233.50;;;2.09;100.00
8627;BME280;4351;51.422;6.794;2023-04-05T03:28:08;102227.31;;;2.04;100.00
8627;BME280;4351;51.422;6.794;2023-04-05T03:30:40;102228.16;;;2.03;100.00
8627;BME280;4351;51.422;6.794;2023-04-05T03:33:17;102230.84;;;1.92;100.00
8627;BME280;4351;51.422;6.794;2023-04-05T03:35:49;102235.28;;;1.93;100.00
8627;BME280;4351;51.422;6.794;2023-04-05T03:38:17;102228.19;;;1.86;100.00
8627;BME280;4351;51.422;6.794;2023-04-05T03:41:04;102230.84;;;1.86;100.00
8627;BME280;4351;51.422;6.794;2023-04-05T03:43:34;102224.66;;;1.82;100.00
8627;BME280;4351;51.422;6.794;2023-04-05T03:46:02;102225.53;;;1.86;100.00
8627;BME280;4351;51.422;6.794;2023-04-05T03:48:30;102223.72;;;1.84;100.00
8627;BME280;4351;51.422;6.794;2023-04-05T03:50:58;102214.84;;;1.82;100.00
8627;BME280;4351;51.422;6.794;2023-04-05T03:53:25;102217.53;;;1.84;100.00
8627;BME280;4351;51.422;6.794;2023-04-05T03:55:57;102213.09;;;1.83;100.00
8627;BME280;4351;51.422;6.794;2023-04-05T03:58:39;102217.53;;;1.82;100.00
8627;BME280;4351;51.422;6.794;2023-04-05T04:01:08;102224.66;;;1.93;100.00
8627;BME280;4351;51.422;6.794;2023-04-05T04:03:36;102221.06;;;1.89;100.00
8627;BME280;4351;51.422;6.794;2023-04-05T04:06:05;102217.50;;;1.89;100.00
8627;BME280;4351;51.422;6.794;2023-04-05T04:08:34;102216.63;;;1.85;100.00
8627;BME280;4351;51.422;6.794;2023-04-05T04:11:02;102221.94;;;1.76;100.00
8627;BME280;4351;51.422;6.794;2023-04-05T04:13:33;102219.31;;;1.79;100.00
8627;BME280;4351;51.422;6.794;2023-04-05T04:16:09;102217.53;;;1.73;100.00
8627;BME280;4351;51.422;6.794;2023-04-05T04:18:57;102220.19;;;1.76;100.00
8627;BME280;4351;51.422;6.794;2023-04-05T04:21:37;102225.50;;;1.67;100.00
8627;BME280;4351;51.422;6.794;2023-04-05T04:24:11;102220.19;;;1.68;100.00
8627;BME280;4351;51.422;6.794;2023-04-05T04:27:10;102216.63;;;1.69;100.00
8627;BME280;4351;51.422;6.794;2023-04-05T04:29:56;102217.53;;;1.75;100.00
8627;BME280;4351;51.422;6.794;2023-04-05T04:32:53;102217.53;;;1.70;100.00
8627;BME280;4351;51.422;6.794;2023-04-05T04:35:45;102214.88;;;1.70;100.00
8627;BME280;4351;51.422;6.794;2023-04-05T04:38:29;102226.38;;;1.61;100.00
8627;BME280;4351;51.422;6.794;2023-04-05T04:41:32;102225.50;;;1.71;100.00
8627;BME280;4351;51.422;6.794;2023-04-05T04:44:23;102216.63;;;1.46;100.00
8627;BME280;4351;51.422;6.794;2023-04-05T04:47:19;102225.53;;;1.62;100.00
8627;BME280;4351;51.422;6.794;2023-04-05T04:50:06;102225.50;;;1.70;100.00
8627;BME280;4351;51.422;6.794;2023-04-05T04:52:36;102226.41;;;1.64;100.00
8627;BME280;4351;51.422;6.794;2023-04-05T04:55:04;102225.50;;;1.54;100.00
8627;BME280;4351;51.422;6.794;2023-04-05T04:57:32;102226.41;;;1.58;100.00
8627;BME280;4351;51.422;6.794;2023-04-05T05:00:00;102224.59;;;1.38;100.00
8627;BME280;4351;51.422;6.794;2023-04-05T05:02:33;102223.72;;;1.44;100.00
8627;BME280;4351;51.422;6.794;2023-04-05T05:05:04;102225.50;;;1.48;100.00
8627;BME280;4351;51.422;6.794;2023-04-05T05:07:34;102227.28;;;1.51;100.00
8627;BME280;4351;51.422;6.794;2023-04-05T05:10:02;102227.28;;;1.49;100.00
8627;BME280;4351;51.422;6.794;2023-04-05T05:12:30;102220.16;;;1.54;100.00
8627;BME280;4351;51.422;6.794;2023-04-05T05:14:58;102223.75;;;1.58;100.00
8627;BME280;4351;51.422;6.794;2023-04-05T05:17:26;102227.28;;;1.57;100.00
8627;BME280;4351;51.422;6.794;2023-04-05T05:19:54;102222.84;;;1.65;100.00
8627;BME280;4351;51.422;6.794;2023-04-05T05:22:22;102216.63;;;1.55;100.00
8627;BME280;4351;51.422;6.794;2023-04-05T05:24:51;102228.19;;;1.62;100.00
8627;BME280;4351;51.422;6.794;2023-04-05T05:27:19;102212.19;;;1.56;100.00
8627;BME280;4351;51.422;6.794;2023-04-05T05:29:48;102215.75;;;1.61;100.00
8627;BME280;4351;51.422;6.794;2023-04-05T05:32:16;102229.91;;;1.54;100.00
8627;BME280;4351;51.422;6.794;2023-04-05T05:34:44;102218.41;;;1.50;100.00
8627;BME280;4351;51.422;6.794;2023-04-05T05:37:14;102225.53;;;1.68;100.00
8627;BME280;4351;51.422;6.794;2023-04-05T05:39:42;102222.84;;;1.78;100.00
8627;BME280;4351;51.422;6.794;2023-04-05T05:42:12;102225.53;;;1.84;100.00
8627;BME280;4351;51.422;6.794;2023-04-05T05:44:40;102229.06;;;1.86;100.00
8627;BME280;4351;51.422;6.794;2023-04-05T05:47:08;102221.06;;;1.89;100.00
8627;BME280;4351;51.422;6.794;2023-04-05T05:49:36;102223.75;;;2.03;100.00
8627;BME280;4351;51.422;6.794;2023-04-05T05:52:04;102218.41;;;2.11;100.00
8627;BME280;4351;51.422;6.794;2023-04-05T05:54:32;102226.38;;;2.21;100.00
8627;BME280;4351;51.422;6.794;2023-04-05T05:57:00;102230.81;;;2.18;100.00
8627;BME280;4351;51.422;6.794;2023-04-05T05:59:30;102233.47;;;2.28;100.00
8627;BME280;4351;51.422;6.794;2023-04-05T06:01:58;102231.66;;;2.49;100.00
8627;BME280;4351;51.422;6.794;2023-04-05T06:04:26;102235.13;;;2.73;100.00
8627;BME280;4351;51.422;6.794;2023-04-05T06:06:55;102229.75;;;2.89;100.00
8627;BME280;4351;51.422;6.794;2023-04-05T06:09:23;102227.00;;;3.04;100.00
8627;BME280;4351;51.422;6.794;2023-04-05T06:11:52;102214.41;;;3.30;100.00
8627;BME280;4351;51.422;6.794;2023-04-05T06:14:23;102217.88;;;3.43;100.00
8627;BME280;4351;51.422;6.794;2023-04-05T06:16:53;102216.03;;;3.54;100.00
8627;BME280;4351;51.422;6.794;2023-04-05T06:19:21;102206.28;;;3.50;100.00
8627;BME280;4351;51.422;6.794;2023-04-05T06:21:49;102218.41;;;3.89;100.00
8627;BME280;4351;51.422;6.794;2023-04-05T06:24:17;102218.16;;;4.17;100.00
8627;BME280;4351;51.422;6.794;2023-04-05T06:26:45;102221.53;;;4.38;100.00
8627;BME280;4351;51.422;6.794;2023-04-05T06:29:13;102214.22;;;4.53;100.00
8627;BME280;4351;51.422;6.794;2023-04-05T06:31:41;102213.81;;;4.87;100.00
8627;BME280;4351;51.422;6.794;2023-04-05T06:34:10;102203.56;;;5.21;100.00
8627;BME280;4351;51.422;6.794;2023-04-05T06:36:38;102199.91;;;5.28;100.00
8627;BME280;4351;51.422;6.794;2023-04-05T06:39:06;102206.13;;;5.27;100.00
8627;BME280;4351;51.422;6.794;2023-04-05T06:41:34;102207.63;;;5.47;100.00
8627;BME280;4351;51.422;6.794;2023-04-05T06:44:02;102203.75;;;5.67;100.00
8627;BME280;4351;51.422;6.794;2023-04-05T06:46:29;102200.78;;;5.85;100.00
8627;BME280;4351;51.422;6.794;2023-04-05T06:48:57;102192.59;;;5.93;100.00
8627;BME280;4351;51.422;6.794;2023-04-05T06:51:30;102189.22;;;5.83;100.00
8627;BME280;4351;51.422;6.794;2023-04-05T06:53:58;102189.06;;;5.91;100.00
8627;BME280;4351;51.422;6.794;2023-04-05T06:56:26;102181.69;;;6.04;100.00
8627;BME280;4351;51.422;6.794;2023-04-05T06:58:54;102181.34;;;6.23;100.00
8627;BME280;4351;51.422;6.794;2023-04-05T07:01:24;102172.41;;;6.24;100.00
8627;BME280;4351;51.422;6.794;2023-04-05T07:03:52;102159.66;;;6.37;100.00
8627;BME280;4351;51.422;6.794;2023-04-05T07:06:21;102152.16;;;6.55;100.00
8627;BME280;4351;51.422;6.794;2023-04-05T07:08:51;102137.72;;;6.61;100.00
8627;BME280;4351;51.422;6.794;2023-04-05T07:11:19;102134.09;;;6.63;100.00
8627;BME280;4351;51.422;6.794;2023-04-05T07:13:47;102112.91;;;6.92;100.00
8627;BME280;4351;51.422;6.794;2023-04-05T07:16:15;102112.50;;;7.09;100.00
8627;BME280;4351;51.422;6.794;2023-04-05T07:18:44;102101.03;;;7.03;100.00
8627;BME280;4351;51.422;6.794;2023-04-05T07:21:13;102101.91;;;7.41;100.00
8627;BME280;4351;51.422;6.794;2023-04-05T07:23:41;102094.69;;;7.43;100.00
8627;BME280;4351;51.422;6.794;2023-04-05T07:26:10;102090.72;;;7.58;100.00
8627;BME280;4351;51.422;6.794;2023-04-05T07:28:38;102087.22;;;7.55;100.00
8627;BME280;4351;51.422;6.794;2023-04-05T07:31:07;102080.88;;;7.57;100.00
8627;BME280;4351;51.422;6.794;2023-04-05T07:33:35;102084.44;;;7.58;100.00
8627;BME280;4351;51.422;6.794;2023-04-05T07:36:03;102076.44;;;7.56;100.00
8627;BME280;4351;51.422;6.794;2023-04-05T07:38:31;102085.34;;;7.57;100.00
8627;BME280;4351;51.422;6.794;2023-04-05T07:40:59;102086.63;;;7.43;100.00
8627;BME280;4351;51.422;6.794;2023-04-05T07:43:30;102093.78;;;7.78;100.00
8627;BME280;4351;51.422;6.794;2023-04-05T07:46:02;102083.88;;;7.80;100.00
8627;BME280;4351;51.422;6.794;2023-04-05T07:48:31;102081.00;;;7.86;100.00
8627;BME280;4351;51.422;6.794;2023-04-05T07:51:03;102078.81;;;8.01;100.00
8627;BME280;4351;51.422;6.794;2023-04-05T07:53:31;102078.91;;;7.98;100.00
8627;BME280;4351;51.422;6.794;2023-04-05T07:56:02;102085.53;;;8.18;100.00
8627;BME280;4351;51.422;6.794;2023-04-05T07:58:33;102078.38;;;8.16;100.00
8627;BME280;4351;51.422;6.794;2023-04-05T08:01:02;102075.56;;;8.21;100.00
8627;BME280;4351;51.422;6.794;2023-04-05T08:03:31;102073.06;;;8.45;100.00
8627;BME280;4351;51.422;6.794;2023-04-05T08:06:08;102068.91;;;8.35;100.00
8627;BME280;4351;51.422;6.794;2023-04-05T08:08:37;102060.25;;;8.23;100.00
8627;BME280;4351;51.422;6.794;2023-04-05T08:11:05;102072.94;;;8.50;100.00
8627;BME280;4351;51.422;6.794;2023-04-05T08:13:35;102073.50;;;8.61;100.00
8627;BME280;4351;51.422;6.794;2023-04-05T08:16:06;102064.66;;;8.56;100.00
8627;BME280;4351;51.422;6.794;2023-04-05T08:18:34;102061.59;;;8.69;100.00
8627;BME280;4351;51.422;6.794;2023-04-05T08:21:02;102062.22;;;8.79;100.00
8627;BME280;4351;51.422;6.794;2023-04-05T08:23:30;102057.59;;;8.82;100.00
8627;BME280;4351;51.422;6.794;2023-04-05T08:25:58;102052.06;;;8.58;100.00
8627;BME280;4351;51.422;6.794;2023-04-05T08:28:26;102057.25;;;8.65;100.00
8627;BME280;4351;51.422;6.794;2023-04-05T08:30:56;102055.31;;;8.70;100.00
8627;BME280;4351;51.422;6.794;2023-04-05T08:33:23;102046.63;;;8.89;100.00
8627;BME280;4351;51.422;6.794;2023-04-05T08:35:53;102040.97;;;8.98;100.00
8627;BME280;4351;51.422;6.794;2023-04-05T08:38:22;102041.09;;;8.95;100.00
8627;BME280;4351;51.422;6.794;2023-04-05T08:40:50;102027.88;;;9.14;100.00
8627;BME280;4351;51.422;6.794;2023-04-05T08:43:22;102022.22;;;9.22;100.00
8627;BME280;4351;51.422;6.794;2023-04-05T08:45:53;102027.50;;;9.51;100.00
8627;BME280;4351;51.422;6.794;2023-04-05T08:48:26;102016.31;;;9.38;100.00
8627;BME280;4351;51.422;6.794;2023-04-05T08:50:58;102007.56;;;9.57;100.00
8627;BME280;4351;51.422;6.794;2023-04-05T08:53:26;102004.78;;;9.32;100.00
8627;BME280;4351;51.422;6.794;2023-04-05T08:55:55;102010.31;;;9.29;100.00
8627;BME280;4351;51.422;6.794;2023-04-05T08:58:24;102007.00;;;9.72;100.00
8627;BME280;4351;51.422;6.794;2023-04-05T09:00:54;102008.59;;;9.78;100.00
8627;BME280;4351;51.422;6.794;2023-04-05T09:03:27;101995.41;;;10.18;100.00
8627;BME280;4351;51.422;6.794;2023-04-05T09:05:57;101993.47;;;10.44;100.00
8627;BME280;4351;51.422;6.794;2023-04-05T09:08:26;101968.59;;;10.14;100.00
8627;BME280;4351;51.422;6.794;2023-04-05T09:10:53;101984.75;;;10.15;100.00
8627;BME280;4351;51.422;6.794;2023-04-05T09:13:21;101999.44;;;10.54;100.00
8627;BME280;4351;51.422;6.794;2023-04-05T09:15:49;101971.91;;;10.44;100.00
8627;BME280;4351;51.422;6.794;2023-04-05T09:18:17;101967.00;;;10.99;100.00
8627;BME280;4351;51.422;6.794;2023-04-05T09:21:01;101944.84;;;10.91;100.00
8627;BME280;4351;51.422;6.794;2023-04-05T09:23:30;101949.31;;;10.92;100.00
8627;BME280;4351;51.422;6.794;2023-04-05T09:25:58;101952.09;;;11.32;100.00
8627;BME280;4351;51.422;6.794;2023-04-05T09:28:39;101935.53;;;11.19;100.00
8627;BME280;4351;51.422;6.794;2023-04-05T09:31:08;101946.34;;;11.40;100.00
8627;BME280;4351;51.422;6.794;2023-04-05T09:33:36;101922.06;;;10.98;100.00
8627;BME280;4351;51.422;6.794;2023-04-05T09:36:06;101946.97;;;11.47;100.00
8627;BME280;4351;51.422;6.794;2023-04-05T09:38:41;101938.28;;;11.79;100.00
8627;BME280;4351;51.422;6.794;2023-04-05T09:41:10;101918.84;;;11.51;100.00
8627;BME280;4351;51.422;6.794;2023-04-05T09:43:38;101932.31;;;11.72;100.00
8627;BME280;4351;51.422;6.794;2023-04-05T09:46:27;101922.38;;;11.92;100.00
8627;BME280;4351;51.422;6.794;2023-04-05T09:48:55;101948.09;;;11.41;100.00
8627;BME280;4351;51.422;6.794;2023-04-05T09:51:31;101939.13;;;11.20;100.00
8627;BME280;4351;51.422;6.794;2023-04-05T09:54:03;101952.03;;;11.34;100.00
8627;BME280;4351;51.422;6.794;2023-04-05T09:56:32;101942.06;;;11.55;100.00
8627;BME280;4351;51.422;6.794;2023-04-05T09:59:01;101933.94;;;11.15;100.00
8627;BME280;4351;51.422;6.794;2023-04-05T10:01:32;101944.38;;;11.65;100.00
8627;BME280;4351;51.422;6.794;2023-04-05T10:04:00;101919.56;;;11.55;100.00
8627;BME280;4351;51.422;6.794;2023-04-05T10:06:37;101923.09;;;11.76;100.00
8627;BME280;4351;51.422;6.794;2023-04-05T10:09:07;101918.47;;;11.19;100.00
8627;BME280;4351;51.422;6.794;2023-04-05T10:11:36;101914.56;;;11.05;100.00
8627;BME280;4351;51.422;6.794;2023-04-05T10:14:05;101938.03;;;11.24;100.00
8627;BME280;4351;51.422;6.794;2023-04-05T10:16:37;101924.25;;;11.30;100.00
8627;BME280;4351;51.422;6.794;2023-04-05T10:19:12;101914.25;;;11.32;100.00
8627;BME280;4351;51.422;6.794;2023-04-05T10:21:45;101914.75;;;11.61;100.00
8627;BME280;4351;51.422;6.794;2023-04-05T10:24:19;101898.38;;;11.45;100.00
8627;BME280;4351;51.422;6.794;2023-04-05T10:26:58;101903.53;;;11.71;100.00
8627;BME280;4351;51.422;6.794;2023-04-05T10:29:37;101892.94;;;11.26;100.00
8627;BME280;4351;51.422;6.794;2023-04-05T10:32:11;101906.03;;;11.35;100.00
8627;BME280;4351;51.422;6.794;2023-04-05T10:34:47;101875.44;;;11.54;100.00
8627;BME280;4351;51.422;6.794;2023-04-05T10:37:26;101899.13;;;11.68;100.00
8627;BME280;4351;51.422;6.794;2023-04-05T10:40:01;101895.16;;;11.56;100.00
8627;BME280;4351;51.422;6.794;2023-04-05T10:42:40;101881.31;;;11.83;100.00
8627;BME280;4351;51.422;6.794;2023-04-05T10:45:11;101880.94;;;12.11;100.00
8627;BME280;4351;51.422;6.794;2023-04-05T10:47:43;101862.31;;;12.24;100.00
8627;BME280;4351;51.422;6.794;2023-04-05T10:50:18;101876.69;;;12.05;100.00
8627;BME280;4351;51.422;6.794;2023-04-05T10:52:48;101921.13;;;11.99;100.00
8627;BME280;4351;51.422;6.794;2023-04-05T10:55:18;101863.75;;;12.12;100.00
8627;BME280;4351;51.422;6.794;2023-04-05T10:57:47;101857.91;;;12.02;100.00
8627;BME280;4351;51.422;6.794;2023-04-05T11:00:17;101833.72;;;11.99;100.00
8627;BME280;4351;51.422;6.794;2023-04-05T11:02:47;101819.56;;;12.30;100.00
8627;BME280;4351;51.422;6.794;2023-04-05T11:05:29;101825.38;;;12.03;100.00
8627;BME280;4351;51.422;6.794;2023-04-05T11:08:07;101793.06;;;11.63;100.00
8627;BME280;4351;51.422;6.794;2023-04-05T11:10:37;101828.34;;;11.79;100.00
8627;BME280;4351;51.422;6.794;2023-04-05T11:13:07;101835.78;;;11.74;100.00
8627;BME280;4351;51.422;6.794;2023-04-05T11:15:36;101831.19;;;11.76;100.00
8627;BME280;4351;51.422;6.794;2023-04-05T11:18:09;101818.03;;;11.88;100.00
8627;BME280;4351;51.422;6.794;2023-04-05T11:20:42;101809.28;;;11.63;100.00
8627;BME280;4351;51.422;6.794;2023-04-05T11:23:13;101833.13;;;11.92;100.00
8627;BME280;4351;51.422;6.794;2023-04-05T11:25:46;101830.78;;;12.03;100.00
8627;BME280;4351;51.422;6.794;2023-04-05T11:28:22;101825.78;;;11.95;100.00
8627;BME280;4351;51.422;6.794;2023-04-05T11:30:51;101821.56;;;12.07;100.00
8627;BME280;4351;51.422;6.794;2023-04-05T11:33:52;101812.44;;;12.10;100.00
8627;BME280;4351;51.422;6.794;2023-04-05T11:36:35;101827.50;;;12.16;100.00
8627;BME280;4351;51.422;6.794;2023-04-05T11:39:26;101806.03;;;12.48;100.00
8627;BME280;4351;51.422;6.794;2023-04-05T11:41:58;101784.63;;;12.44;100.00
8627;BME280;4351;51.422;6.794;2023-04-05T11:44:27;101804.19;;;12.49;100.00
8627;BME280;4351;51.422;6.794;2023-04-05T11:46:57;101775.06;;;13.06;100.00
8627;BME280;4351;51.422;6.794;2023-04-05T11:49:25;101771.16;;;12.60;100.00
8627;BME280;4351;51.422;6.794;2023-04-05T11:51:53;101782.53;;;13.18;100.00
8627;BME280;4351;51.422;6.794;2023-04-05T11:54:29;101780.19;;;12.94;100.00
8627;BME280;4351;51.422;6.794;2023-04-05T11:56:57;101793.97;;;13.24;100.00
8627;BME280;4351;51.422;6.794;2023-04-05T11:59:30;101769.78;;;12.86;100.00
8627;BME280;4351;51.422;6.794;2023-04-05T12:01:59;101776.03;;;12.53;100.00
8627;BME280;4351;51.422;6.794;2023-04-05T12:04:27;101780.81;;;12.66;100.00
8627;BME280;4351;51.422;6.794;2023-04-05T12:07:13;101781.44;;;12.53;100.00
8627;BME280;4351;51.422;6.794;2023-04-05T12:10:04;101788.13;;;12.28;100.00
8627;BME280;4351;51.422;6.794;2023-04-05T12:12:35;101786.03;;;12.69;100.00
8627;BME280;4351;51.422;6.794;2023-04-05T12:15:05;101778.34;;;12.61;100.00
8627;BME280;4351;51.422;6.794;2023-04-05T12:17:42;101766.19;;;12.86;100.00
8627;BME280;4351;51.422;6.794;2023-04-05T12:20:12;101776.19;;;12.68;100.00
8627;BME280;4351;51.422;6.794;2023-04-05T12:22:43;101767.63;;;12.75;100.00
8627;BME280;4351;51.422;6.794;2023-04-05T12:25:13;101770.41;;;12.92;100.00
8627;BME280;4351;51.422;6.794;2023-04-05T12:27:44;101770.69;;;12.51;100.00
8627;BME280;4351;51.422;6.794;2023-04-05T12:30:16;101770.66;;;12.87;100.00
8627;BME280;4351;51.422;6.794;2023-04-05T12:32:50;101775.94;;;13.06;100.00
8627;BME280;4351;51.422;6.794;2023-04-05T12:35:21;101756.81;;;13.26;100.00
8627;BME280;4351;51.422;6.794;2023-04-05T12:37:52;101758.94;;;12.86;100.00
8627;BME280;4351;51.422;6.794;2023-04-05T12:40:22;101763.22;;;13.25;100.00
8627;BME280;4351;51.422;6.794;2023-04-05T12:42:50;101746.00;;;13.58;100.00
8627;BME280;4351;51.422;6.794;2023-04-05T12:45:22;101731.47;;;13.27;100.00
8627;BME280;4351;51.422;6.794;2023-04-05T12:47:52;101737.91;;;13.08;100.00
8627;BME280;4351;51.422;6.794;2023-04-05T12:50:27;101737.91;;;13.08;100.00
8627;BME280;4351;51.422;6.794;2023-04-05T12:52:56;101734.00;;;13.14;100.00
8627;BME280;4351;51.422;6.794;2023-04-05T12:55:28;101726.69;;;12.82;100.00
8627;BME280;4351;51.422;6.794;2023-04-05T12:58:00;101735.47;;;13.03;100.00
8627;BME280;4351;51.422;6.794;2023-04-05T13:00:29;101726.03;;;13.10;100.00
8627;BME280;4351;51.422;6.794;2023-04-05T13:02:58;101723.06;;;13.15;100.00
8627;BME280;4351;51.422;6.794;2023-04-05T13:05:30;101715.84;;;13.16;100.00
8627;BME280;4351;51.422;6.794;2023-04-05T13:07:58;101713.31;;;13.29;100.00
8627;BME280;4351;51.422;6.794;2023-04-05T13:10:27;101729.72;;;13.42;100.00
8627;BME280;4351;51.422;6.794;2023-04-05T13:12:56;101740.66;;;13.40;100.00
8627;BME280;4351;51.422;6.794;2023-04-05T13:15:24;101727.97;;;13.41;100.00
8627;BME280;4351;51.422;6.794;2023-04-05T13:17:52;101730.94;;;13.04;100.00
8627;BME280;4351;51.422;6.794;2023-04-05T13:20:21;101723.59;;;13.06;100.00
8627;BME280;4351;51.422;6.794;2023-04-05T13:22:49;101727.56;;;13.16;100.00
8627;BME280;4351;51.422;6.794;2023-04-05T13:25:21;101714.28;;;12.78;100.00
8627;BME280;4351;51.422;6.794;2023-04-05T13:27:51;101714.13;;;12.81;100.00
8627;BME280;4351;51.422;6.794;2023-04-05T13:30:19;101709.50;;;12.99;100.00
8627;BME280;4351;51.422;6.794;2023-04-05T13:32:50;101724.50;;;13.22;100.00